Ubaitaba, Brazil
Current Conditions -  °F | °C
As of 3:00 AM on Saturday 29 Nov 2014 (Local Time) from SBIL Reporting Station
Broken Clouds Broken Clouds  
Wind Chill: 75°   Ceiling: 2000
Heat Index: 75°   Visibility: 6mi
Dew Point: 72°   Wind: 6mph
Humidity: 89%   Direction: 250°WSW
Pressure: 29.91"   Gusts: NA
Location:  14.31°S, 39.32°W
Report Text: SBIL 290600Z 25005KT 9999 BKN020 24/22 Q1013
Loading
Personal Weather Stations






























Interactive Weather Map New forecast layout! Learn more

10-Day Weather Forecast

Advertisements
Track Severe Weather on mobile